createdAt,value
2022-10-18T00:00:05.684Z,16.1
2022-10-18T00:03:05.681Z,16
2022-10-18T00:06:05.691Z,16
2022-10-18T00:09:05.724Z,16
2022-10-18T00:12:05.712Z,15.9
2022-10-18T00:15:05.715Z,15.9
2022-10-18T00:18:05.724Z,15.9
2022-10-18T00:21:05.729Z,15.8
2022-10-18T00:24:05.739Z,15.8
2022-10-18T00:27:05.778Z,15.8
2022-10-18T00:30:05.752Z,15.7
2022-10-18T00:33:05.763Z,15.7
2022-10-18T00:36:05.768Z,15.7
2022-10-18T00:39:05.783Z,15.7
2022-10-18T00:42:05.782Z,15.6
2022-10-18T00:45:05.826Z,15.6
2022-10-18T00:48:05.796Z,15.6
2022-10-18T00:51:05.808Z,15.6
2022-10-18T00:54:05.823Z,15.5
2022-10-18T00:57:05.828Z,15.5
2022-10-18T01:00:05.835Z,15.5
2022-10-18T01:03:05.869Z,15.4
2022-10-18T01:06:05.851Z,15.4
2022-10-18T01:09:05.860Z,15.4
2022-10-18T01:12:05.870Z,15.4
2022-10-18T01:15:05.876Z,15.4
2022-10-18T01:18:05.888Z,15.4
2022-10-18T01:21:05.919Z,15.3
2022-10-18T01:24:05.905Z,15.4
2022-10-18T01:27:05.913Z,15.3
2022-10-18T01:30:05.921Z,15.3
2022-10-18T01:33:05.932Z,15.3
2022-10-18T01:36:05.937Z,15.3
2022-10-18T01:39:06.212Z,15.3
2022-10-18T01:42:05.969Z,15.3
2022-10-18T01:45:05.976Z,15.2
2022-10-18T01:48:05.985Z,15.3
2022-10-18T01:51:05.980Z,15.2
2022-10-18T01:54:06.004Z,15.2
2022-10-18T01:57:06.029Z,15.2
2022-10-18T02:00:06.013Z,15.2
2022-10-18T02:03:06.026Z,15.2
2022-10-18T02:06:06.034Z,15.2
2022-10-18T02:09:06.040Z,15.2
2022-10-18T02:12:06.052Z,15.2
2022-10-18T02:15:06.088Z,15.2
2022-10-18T02:18:06.076Z,15.2
2022-10-18T02:21:06.084Z,15.2
2022-10-18T02:24:06.101Z,15.2
2022-10-18T02:27:06.098Z,15.1
2022-10-18T02:30:06.114Z,15.1
2022-10-18T02:33:06.145Z,15.2
2022-10-18T02:36:06.132Z,15.1
2022-10-18T02:39:06.152Z,15.1
2022-10-18T02:42:06.156Z,15.1
2022-10-18T02:45:06.158Z,15.1
2022-10-18T02:48:06.171Z,15.1
2022-10-18T02:51:06.208Z,15.1
2022-10-18T02:54:06.193Z,15
2022-10-18T02:57:06.202Z,15
2022-10-18T03:00:06.210Z,15
2022-10-18T03:03:06.226Z,14.9
2022-10-18T03:06:06.243Z,14.9
2022-10-18T03:09:06.268Z,14.9
2022-10-18T03:12:06.267Z,14.9
2022-10-18T03:15:06.270Z,14.9
2022-10-18T03:18:06.275Z,14.9
2022-10-18T03:21:06.285Z,14.9
2022-10-18T03:24:06.295Z,14.9
2022-10-18T03:27:06.336Z,14.8
2022-10-18T03:30:06.317Z,14.8
2022-10-18T03:33:06.329Z,14.8
2022-10-18T03:36:06.333Z,14.8
2022-10-18T03:39:06.346Z,14.7
2022-10-18T03:42:06.359Z,14.7
2022-10-18T03:45:06.382Z,14.7
2022-10-18T03:48:06.371Z,14.7
2022-10-18T03:51:06.390Z,14.6
2022-10-18T03:54:06.397Z,14.6
2022-10-18T03:57:06.407Z,14.7
2022-10-18T04:00:06.408Z,14.6
2022-10-18T04:03:06.447Z,14.6
2022-10-18T04:06:06.431Z,14.6
2022-10-18T04:09:07.827Z,14.7
2022-10-18T04:12:06.447Z,14.7
2022-10-18T04:15:06.455Z,14.8
2022-10-18T04:18:06.463Z,14.8
2022-10-18T04:21:06.493Z,14.8
2022-10-18T04:24:06.487Z,14.9
2022-10-18T04:27:06.482Z,14.9
2022-10-18T04:30:06.499Z,14.9
2022-10-18T04:33:06.502Z,14.9
2022-10-18T04:36:06.506Z,14.9
2022-10-18T04:39:06.548Z,14.9
2022-10-18T04:42:06.534Z,14.9
2022-10-18T04:45:06.530Z,14.9
2022-10-18T04:48:06.540Z,14.9
2022-10-18T04:51:06.544Z,14.9
2022-10-18T04:54:06.544Z,14.9
2022-10-18T04:57:06.567Z,14.9
2022-10-18T05:00:06.543Z,14.8
2022-10-18T05:03:06.556Z,14.8
2022-10-18T05:06:06.557Z,14.8
2022-10-18T05:09:06.567Z,14.8
2022-10-18T05:12:06.569Z,14.8
2022-10-18T05:15:06.598Z,14.8
2022-10-18T05:18:06.579Z,14.8
2022-10-18T05:21:06.575Z,14.8
2022-10-18T05:24:06.589Z,14.8
2022-10-18T05:27:06.588Z,14.8
2022-10-18T05:30:06.610Z,14.8
2022-10-18T05:33:06.628Z,14.8
2022-10-18T05:36:06.603Z,14.8
2022-10-18T05:39:06.613Z,14.8
2022-10-18T05:42:06.607Z,14.8
2022-10-18T05:45:06.610Z,14.9
2022-10-18T05:48:06.614Z,14.9
2022-10-18T05:51:06.636Z,14.9
2022-10-18T05:54:06.618Z,14.9
2022-10-18T05:57:06.625Z,14.9
2022-10-18T06:00:06.632Z,14.9
2022-10-18T06:03:06.633Z,14.9
2022-10-18T06:06:06.629Z,14.9
2022-10-18T06:09:06.664Z,15
2022-10-18T06:12:06.633Z,15
2022-10-18T06:15:06.635Z,15
2022-10-18T06:18:06.635Z,15
2022-10-18T06:21:06.643Z,15
2022-10-18T06:24:06.645Z,15
2022-10-18T06:30:06.643Z,15
2022-10-18T06:33:06.642Z,15.1
2022-10-18T06:36:06.648Z,15.1
2022-10-18T06:39:06.656Z,15.1
2022-10-18T06:42:06.657Z,15.1
2022-10-18T06:45:06.685Z,15
2022-10-18T06:48:06.691Z,15.1
2022-10-18T06:51:06.675Z,15.1
2022-10-18T06:54:17.219Z,15.1
2022-10-18T06:57:06.695Z,15.1
2022-10-18T07:00:06.746Z,15.1
2022-10-18T07:03:06.797Z,15.1
2022-10-18T07:06:06.937Z,15.1
2022-10-18T07:09:06.741Z,15.1
2022-10-18T07:12:06.747Z,15.1
2022-10-18T07:15:09.286Z,15.1
2022-10-18T07:18:06.774Z,15
2022-10-18T07:21:06.805Z,15
2022-10-18T07:24:06.801Z,15
2022-10-18T07:27:06.803Z,15
2022-10-18T07:30:06.824Z,15
2022-10-18T07:33:06.827Z,15
2022-10-18T07:36:06.839Z,15
2022-10-18T07:39:06.874Z,15
2022-10-18T07:42:06.870Z,15
2022-10-18T07:45:06.887Z,14.9
2022-10-18T07:48:06.898Z,14.9
2022-10-18T07:51:06.907Z,15
2022-10-18T07:54:06.920Z,15
2022-10-18T07:57:06.964Z,15
2022-10-18T08:00:06.974Z,15
2022-10-18T08:03:06.970Z,15
2022-10-18T08:06:06.974Z,15.1
2022-10-18T08:09:06.981Z,15.1
2022-10-18T08:12:07.004Z,15.2
2022-10-18T08:15:07.060Z,15.3
2022-10-18T08:18:07.025Z,15.4
2022-10-18T08:21:07.043Z,15.5
2022-10-18T08:24:07.051Z,15.5
2022-10-18T08:27:07.076Z,15.5
2022-10-18T08:30:07.082Z,15.5
2022-10-18T08:33:07.124Z,15.5
2022-10-18T08:36:07.118Z,15.5
2022-10-18T08:39:07.128Z,15.4
2022-10-18T08:42:07.132Z,15.5
2022-10-18T08:45:12.491Z,15.5
2022-10-18T08:48:07.171Z,15.5
2022-10-18T08:51:07.208Z,15.6
2022-10-18T08:54:07.199Z,15.7
2022-10-18T08:57:07.208Z,15.7
2022-10-18T09:00:07.226Z,15.8
2022-10-18T09:03:07.354Z,15.8
2022-10-18T09:06:07.254Z,15.8
2022-10-18T09:09:07.295Z,15.9
2022-10-18T09:12:07.284Z,15.9
2022-10-18T09:15:07.305Z,16
2022-10-18T09:18:07.404Z,16
2022-10-18T09:21:07.334Z,16.1
2022-10-18T09:24:07.341Z,16.1
2022-10-18T09:27:07.386Z,16.3
2022-10-18T09:30:07.372Z,16.4
2022-10-18T09:33:07.380Z,16.5
2022-10-18T09:36:07.400Z,16.6
2022-10-18T09:39:07.416Z,16.7
2022-10-18T09:42:07.426Z,16.8
2022-10-18T09:45:07.505Z,16.9
2022-10-18T09:48:07.541Z,16.9
2022-10-18T09:51:07.451Z,16.9
2022-10-18T09:54:07.465Z,16.9
2022-10-18T09:57:07.482Z,16.7
2022-10-18T10:00:07.505Z,16.7
2022-10-18T10:03:07.547Z,16.7
2022-10-18T10:06:07.543Z,16.7
2022-10-18T10:09:07.547Z,16.7
2022-10-18T10:12:07.566Z,16.7
2022-10-18T10:15:07.582Z,16.9
2022-10-18T10:18:07.595Z,16.9
2022-10-18T10:21:07.639Z,17
2022-10-18T10:24:07.624Z,17
2022-10-18T10:27:07.642Z,17.1
2022-10-18T10:30:07.681Z,17.1
2022-10-18T10:33:07.675Z,17.2
2022-10-18T10:36:07.692Z,17.3
2022-10-18T10:39:07.725Z,17.4
2022-10-18T10:42:08.040Z,17.5
2022-10-18T10:45:07.726Z,17.5
2022-10-18T10:48:07.743Z,17.5
2022-10-18T10:51:07.762Z,17.5
2022-10-18T10:54:07.774Z,17.4
2022-10-18T10:57:07.836Z,17.3
2022-10-18T11:00:07.800Z,17.3
2022-10-18T11:03:24.060Z,17.3
2022-10-18T11:06:07.819Z,17.4
2022-10-18T11:09:07.836Z,17.7
2022-10-18T11:12:07.864Z,18
2022-10-18T11:15:07.887Z,18.2
2022-10-18T11:18:07.890Z,18.5
2022-10-18T11:21:07.909Z,18.5
2022-10-18T11:24:07.911Z,18.4
2022-10-18T11:27:07.945Z,18.2
2022-10-18T11:30:07.936Z,18
2022-10-18T11:33:07.962Z,17.7
2022-10-18T11:36:07.951Z,17.5
2022-10-18T11:39:07.960Z,17.3
2022-10-18T11:42:07.982Z,17.2
2022-10-18T11:45:07.986Z,17
2022-10-18T11:48:08.005Z,17
2022-10-18T11:51:08.045Z,17.1
2022-10-18T11:54:08.028Z,17.2
2022-10-18T11:57:08.061Z,17.3
2022-10-18T12:00:08.059Z,17.5
2022-10-18T12:03:08.174Z,17.6
2022-10-18T12:06:08.088Z,17.7
2022-10-18T12:09:08.125Z,17.7
2022-10-18T12:12:08.142Z,17.7
2022-10-18T12:15:08.141Z,17.6
2022-10-18T12:18:08.156Z,17.5
2022-10-18T12:21:08.170Z,17.5
2022-10-18T12:24:08.182Z,17.6
2022-10-18T12:27:08.225Z,17.6
2022-10-18T12:30:08.241Z,17.5
2022-10-18T12:33:27.019Z,17.5
2022-10-18T12:36:08.229Z,17.6
2022-10-18T12:39:08.263Z,17.7
2022-10-18T12:42:08.266Z,17.9
2022-10-18T12:45:08.312Z,18
2022-10-18T12:48:08.291Z,18.1
2022-10-18T12:51:08.300Z,18.2
2022-10-18T12:54:08.315Z,18.2
2022-10-18T12:57:08.351Z,18.3
2022-10-18T13:00:08.363Z,18.3
2022-10-18T13:03:08.426Z,18.2
2022-10-18T13:06:08.391Z,18.1
2022-10-18T13:09:08.409Z,17.9
2022-10-18T13:12:08.432Z,17.8
2022-10-18T13:15:24.626Z,17.8
2022-10-18T13:18:08.432Z,17.8
2022-10-18T13:21:08.489Z,17.8
2022-10-18T13:24:08.470Z,17.8
2022-10-18T13:30:08.501Z,17.8
2022-10-18T13:33:08.532Z,17.8
2022-10-18T13:36:08.538Z,17.8
2022-10-18T13:39:08.578Z,17.8
2022-10-18T13:42:08.589Z,17.8
2022-10-18T13:45:08.596Z,17.8
2022-10-18T13:48:08.613Z,17.7
2022-10-18T13:51:08.631Z,17.7
2022-10-18T13:54:08.647Z,17.7
2022-10-18T13:57:08.702Z,17.6
2022-10-18T14:00:08.683Z,17.6
2022-10-18T14:03:16.322Z,17.6
2022-10-18T14:06:08.710Z,17.6
2022-10-18T14:09:13.751Z,17.6
2022-10-18T14:12:08.769Z,17.6
2022-10-18T14:15:08.788Z,17.6
2022-10-18T14:18:08.784Z,17.5
2022-10-18T14:21:13.620Z,17.6
2022-10-18T14:24:08.816Z,17.6
2022-10-18T14:27:08.844Z,17.5
2022-10-18T14:30:08.846Z,17.4
2022-10-18T14:33:08.902Z,17.4
2022-10-18T14:36:10.260Z,17.3
2022-10-18T14:39:08.909Z,17.3
2022-10-18T14:42:08.933Z,17.2
2022-10-18T14:45:08.952Z,17.1
2022-10-18T14:48:08.975Z,17.1
2022-10-18T14:51:09.016Z,17
2022-10-18T14:54:09.050Z,16.9
2022-10-18T14:57:09.036Z,16.9
2022-10-18T15:00:09.037Z,16.9
2022-10-18T15:03:09.061Z,16.8
2022-10-18T15:06:09.075Z,16.8
2022-10-18T15:09:09.115Z,16.7
2022-10-18T15:12:09.146Z,16.7
2022-10-18T15:15:09.122Z,16.7
2022-10-18T15:18:09.143Z,16.6
2022-10-18T15:21:09.160Z,16.5
2022-10-18T15:24:09.186Z,16.4
2022-10-18T15:27:09.258Z,16.3
2022-10-18T15:30:09.232Z,16.2
2022-10-18T15:33:09.280Z,16.1
2022-10-18T15:36:09.277Z,16
2022-10-18T15:39:09.291Z,15.9
2022-10-18T15:42:09.330Z,15.8
2022-10-18T15:45:09.357Z,15.7
2022-10-18T15:48:09.381Z,15.6
2022-10-18T15:51:09.362Z,15.5
2022-10-18T15:54:09.381Z,15.3
2022-10-18T15:57:09.414Z,15.1
2022-10-18T16:00:09.420Z,15
2022-10-18T16:03:09.467Z,14.8
2022-10-18T16:06:09.920Z,14.7
2022-10-18T16:09:09.480Z,14.6
2022-10-18T16:12:09.547Z,14.5
2022-10-18T16:15:09.521Z,14.3
2022-10-18T16:18:09.548Z,14.2
2022-10-18T16:21:09.591Z,14.1
2022-10-18T16:24:09.578Z,13.9
2022-10-18T16:27:09.631Z,13.8
2022-10-18T16:30:10.592Z,13.7
2022-10-18T16:33:09.656Z,13.6
2022-10-18T16:36:09.676Z,13.4
2022-10-18T16:39:09.721Z,13.3
2022-10-18T16:42:09.734Z,13.2
2022-10-18T16:45:09.732Z,13.1
2022-10-18T16:48:09.753Z,13
2022-10-18T16:51:09.761Z,13
2022-10-18T16:54:09.775Z,12.9
2022-10-18T16:57:09.833Z,12.9
2022-10-18T17:00:09.781Z,12.8
2022-10-18T17:03:09.786Z,12.8
2022-10-18T17:06:09.797Z,12.7
2022-10-18T17:09:09.798Z,12.7
2022-10-18T17:12:09.814Z,12.6
2022-10-18T17:15:09.819Z,12.6
2022-10-18T17:18:09.802Z,12.5
2022-10-18T17:21:09.808Z,12.4
2022-10-18T17:24:09.801Z,12.3
2022-10-18T17:27:09.815Z,12.2
2022-10-18T17:30:09.807Z,12.1
2022-10-18T17:33:09.835Z,12
2022-10-18T17:36:09.809Z,12
2022-10-18T17:39:09.813Z,11.9
2022-10-18T17:42:09.830Z,11.8
2022-10-18T17:45:09.819Z,11.7
2022-10-18T17:48:09.817Z,11.6
2022-10-18T17:51:09.835Z,11.5
2022-10-18T17:54:09.824Z,11.5
2022-10-18T17:57:09.847Z,11.4
2022-10-18T18:00:09.830Z,11.3
2022-10-18T18:03:09.852Z,11.3
2022-10-18T18:06:09.823Z,11.3
2022-10-18T18:09:09.848Z,11.2
2022-10-18T18:12:09.840Z,11.1
2022-10-18T18:15:09.841Z,11
2022-10-18T18:18:09.830Z,11
2022-10-18T18:21:09.836Z,10.9
2022-10-18T18:24:09.832Z,10.8
2022-10-18T18:27:09.871Z,10.8
2022-10-18T18:30:09.846Z,10.8
2022-10-18T18:33:09.838Z,10.8
2022-10-18T18:36:09.845Z,10.8
2022-10-18T18:39:09.847Z,10.8
2022-10-18T18:42:09.856Z,10.7
2022-10-18T18:45:09.876Z,10.7
2022-10-18T18:48:09.849Z,10.6
2022-10-18T18:51:09.846Z,10.5
2022-10-18T18:54:09.847Z,10.4
2022-10-18T18:57:09.859Z,10.3
2022-10-18T19:00:09.854Z,10.3
2022-10-18T19:03:09.880Z,10.3
2022-10-18T19:06:09.853Z,10.2
2022-10-18T19:09:09.863Z,10.2
2022-10-18T19:12:09.868Z,10.2
2022-10-18T19:15:09.859Z,10.2
2022-10-18T19:18:09.860Z,10.2
2022-10-18T19:21:09.895Z,10.2
2022-10-18T19:24:09.865Z,10.2
2022-10-18T19:27:09.889Z,10.3
2022-10-18T19:30:09.871Z,10.4
2022-10-18T19:33:09.868Z,10.5
2022-10-18T19:36:09.867Z,10.6
2022-10-18T19:39:09.897Z,10.7
2022-10-18T19:42:09.884Z,10.7
2022-10-18T19:45:09.874Z,10.8
2022-10-18T19:48:12.414Z,10.9
2022-10-18T19:51:10.071Z,11
2022-10-18T19:54:09.884Z,11
2022-10-18T19:57:09.907Z,11.2
2022-10-18T20:00:11.006Z,11.3
2022-10-18T20:03:09.890Z,11.4
2022-10-18T20:06:09.892Z,11.4
2022-10-18T20:09:10.387Z,11.5
2022-10-18T20:12:09.891Z,11.5
2022-10-18T20:15:09.920Z,11.5
2022-10-18T20:18:09.898Z,11.6
2022-10-18T20:21:09.901Z,11.6
2022-10-18T20:24:09.902Z,11.6
2022-10-18T20:27:09.909Z,11.6
2022-10-18T20:30:10.601Z,11.6
2022-10-18T20:33:09.945Z,11.6
2022-10-18T20:36:09.921Z,11.6
2022-10-18T20:39:09.920Z,11.6
2022-10-18T20:42:09.916Z,11.6
2022-10-18T20:45:10.063Z,11.6
2022-10-18T20:48:09.930Z,11.6
2022-10-18T20:51:09.954Z,11.6
2022-10-18T20:54:09.927Z,11.6
2022-10-18T20:57:09.930Z,11.6
2022-10-18T21:00:09.934Z,11.6
2022-10-18T21:03:09.938Z,11.5
2022-10-18T21:06:09.937Z,11.5
2022-10-18T21:09:09.969Z,11.5
2022-10-18T21:15:09.952Z,11.5
2022-10-18T21:18:09.956Z,11.4
2022-10-18T21:21:10.054Z,11.4
2022-10-18T21:24:09.945Z,11.4
2022-10-18T21:27:09.980Z,11.4
2022-10-18T21:30:09.963Z,11.4
2022-10-18T21:33:09.965Z,11.4
2022-10-18T21:36:09.965Z,11.4
2022-10-18T21:39:10.017Z,11.4
2022-10-18T21:42:09.965Z,11.4
2022-10-18T21:45:10.004Z,11.5
2022-10-18T21:48:09.994Z,11.5
2022-10-18T21:51:09.973Z,11.4
2022-10-18T21:54:09.973Z,11.5
2022-10-18T21:57:09.976Z,11.4
2022-10-18T22:00:09.976Z,11.4
2022-10-18T22:03:10.004Z,11.4
2022-10-18T22:06:10.008Z,11.4
2022-10-18T22:09:09.995Z,11.3
2022-10-18T22:12:10.802Z,11.3
2022-10-18T22:15:09.986Z,11.3
2022-10-18T22:18:09.999Z,11.3
2022-10-18T22:21:10.023Z,11.2
2022-10-18T22:24:09.995Z,11.3
2022-10-18T22:27:09.997Z,11.2
2022-10-18T22:30:10.046Z,11.2
2022-10-18T22:33:10.003Z,11.2
2022-10-18T22:36:10.002Z,11.1
2022-10-18T22:39:10.029Z,11.1
2022-10-18T22:42:10.011Z,11
2022-10-18T22:45:10.016Z,10.9
2022-10-18T22:48:10.022Z,10.9
2022-10-18T22:51:10.023Z,10.8
2022-10-18T22:54:10.025Z,10.7
2022-10-18T22:57:10.049Z,10.6
2022-10-18T23:00:10.040Z,10.6
2022-10-18T23:03:10.038Z,10.6
2022-10-18T23:06:10.030Z,10.6
2022-10-18T23:09:10.038Z,10.6
2022-10-18T23:12:10.045Z,10.6
2022-10-18T23:15:10.078Z,10.6
2022-10-18T23:18:10.053Z,10.6
2022-10-18T23:21:10.058Z,10.7
2022-10-18T23:24:10.068Z,10.6
2022-10-18T23:27:10.070Z,10.7
2022-10-18T23:30:10.069Z,10.7
2022-10-18T23:33:10.099Z,10.7
2022-10-18T23:36:10.081Z,10.8
2022-10-18T23:39:10.080Z,10.9
2022-10-18T23:42:10.085Z,10.9
2022-10-18T23:45:10.086Z,11
2022-10-18T23:48:10.096Z,11
2022-10-18T23:51:10.118Z,11
2022-10-18T23:54:10.114Z,11.1
2022-10-18T23:57:10.138Z,11.1
